Time;durP1;ratioP1;P1;durP2;ratioP2;P2;SDS_P1;SDS_P2;PMS_P1;PMS_P2;Temp;Humidity;BMP_temperature;BMP_pressure;BME280_temperature;BME280_humidity;BME280_pressure;Samples;Min_cycle;Max_cycle;Signal;HPM_P1;HPM_P2
2021/10/15 00:00:20;;;;;;;;;51.25;42.50;;;;;14.64;55.71;101729.34;5018210;28;45322;-82
2021/10/15 00:02:46;;;;;;;;;51.00;42.50;;;;;14.56;55.52;101721.22;5018405;28;45346;-80
2021/10/15 00:05:11;;;;;;;;;55.75;44.75;;;;;14.51;55.98;101717.53;5018592;28;45276;-78
2021/10/15 00:07:37;;;;;;;;;56.25;43.25;;;;;14.62;55.72;101731.03;5018462;28;45283;-80
2021/10/15 00:10:07;;;;;;;;;52.75;43.75;;;;;14.46;55.92;101701.69;5017327;28;45295;-79
2021/10/15 00:12:36;;;;;;;;;53.75;42.50;;;;;14.58;56.26;101724.75;5018671;28;45361;-80
2021/10/15 00:15:03;;;;;;;;;55.75;44.75;;;;;14.52;56.01;101724.50;5019271;28;45506;-78
2021/10/15 00:17:29;;;;;;;;;58.50;46.50;;;;;14.49;56.42;101725.28;5018388;28;45916;-77
2021/10/15 00:19:55;;;;;;;;;56.25;46.00;;;;;14.39;56.34;101718.78;5018361;28;45474;-78
2021/10/15 00:22:20;;;;;;;;;52.00;43.00;;;;;14.36;56.83;101729.03;5018099;28;45315;-78
2021/10/15 00:24:46;;;;;;;;;56.50;43.00;;;;;14.28;56.47;101713.91;5018600;28;45513;-78
2021/10/15 00:27:11;;;;;;;;;54.25;44.25;;;;;14.31;56.53;101727.06;5017687;28;46098;-79
2021/10/15 00:29:37;;;;;;;;;51.00;43.00;;;;;14.29;56.89;101732.22;5017997;28;45446;-79
2021/10/15 00:32:06;;;;;;;;;51.50;42.75;;;;;14.22;57.01;101718.03;5018464;28;45421;-80
2021/10/15 00:34:33;;;;;;;;;53.50;42.00;;;;;14.18;56.70;101703.09;5019061;28;45362;-80
2021/10/15 00:36:58;;;;;;;;;54.75;44.00;;;;;14.28;57.16;101720.00;5017424;28;46126;-81
2021/10/15 00:39:24;;;;;;;;;52.50;42.00;;;;;14.24;57.06;101718.97;5017559;28;45268;-81
2021/10/15 00:41:49;;;;;;;;;52.25;42.75;;;;;14.21;57.03;101711.03;5018128;28;45189;-81
2021/10/15 00:44:15;;;;;;;;;48.00;38.25;;;;;14.21;56.88;101718.84;5017758;28;45604;-78
2021/10/15 00:46:42;;;;;;;;;54.75;41.75;;;;;14.17;57.27;101719.56;5032956;28;46243;-82
2021/10/15 00:49:11;;;;;;;;;51.50;40.25;;;;;14.14;57.07;101718.53;5017410;28;45977;-80
2021/10/15 00:51:36;;;;;;;;;50.00;41.00;;;;;14.09;57.19;101718.31;5017919;28;45300;-81
2021/10/15 00:54:03;;;;;;;;;48.25;40.00;;;;;14.07;57.29;101715.63;5018197;28;45252;-80
2021/10/15 00:56:31;;;;;;;;;51.50;42.00;;;;;14.03;57.34;101703.31;5017622;28;45247;-81
2021/10/15 00:59:01;;;;;;;;;48.25;39.75;;;;;14.07;57.43;101712.16;5017401;28;45418;-82
2021/10/15 01:01:27;;;;;;;;;50.00;40.00;;;;;14.04;57.42;101707.66;5017490;28;45294;-81
2021/10/15 01:03:53;;;;;;;;;49.50;40.75;;;;;13.90;57.37;101686.22;5017906;28;45482;-80
2021/10/15 01:06:19;;;;;;;;;48.00;38.25;;;;;13.96;57.80;101690.81;5017031;28;46235;-81
2021/10/15 01:08:46;;;;;;;;;48.75;41.00;;;;;13.95;57.49;101688.16;5017682;28;45590;-81
2021/10/15 01:11:14;;;;;;;;;49.75;38.50;;;;;13.97;57.62;101692.59;5018163;28;45406;-80
2021/10/15 01:13:40;;;;;;;;;42.50;36.25;;;;;14.00;57.97;101699.66;5020659;28;45283;-80
2021/10/15 01:16:08;;;;;;;;;50.00;39.00;;;;;13.92;57.80;101686.31;5017430;28;45940;-81
2021/10/15 01:18:34;;;;;;;;;43.75;37.00;;;;;13.88;57.87;101677.44;5017842;28;45459;-79
2021/10/15 01:21:00;;;;;;;;;47.50;39.00;;;;;13.97;57.93;101694.34;5018500;28;45344;-78
2021/10/15 01:23:26;;;;;;;;;46.75;39.25;;;;;13.95;57.59;101695.97;5018320;28;45236;-79
2021/10/15 01:25:53;;;;;;;;;51.25;41.50;;;;;13.89;57.82;101699.19;5017006;28;45458;-79
2021/10/15 01:28:23;;;;;;;;;50.00;42.50;;;;;13.83;58.44;101691.06;5018011;28;46024;-79
2021/10/15 01:30:49;;;;;;;;;52.25;43.25;;;;;13.84;58.03;101691.16;5017376;28;45208;-79
2021/10/15 01:33:15;;;;;;;;;48.50;40.75;;;;;13.78;58.32;101680.47;5017955;28;45615;-79
2021/10/15 01:35:41;;;;;;;;;51.00;41.00;;;;;13.78;58.31;101675.25;5017293;28;45820;-80
2021/10/15 01:38:06;;;;;;;;;50.25;40.00;;;;;13.73;58.50;101674.16;5017219;28;45778;-81
2021/10/15 01:40:32;;;;;;;;;48.25;40.25;;;;;13.75;58.35;101681.22;5017013;28;45413;-82
2021/10/15 01:42:58;;;;;;;;;48.75;40.50;;;;;13.78;58.09;101680.47;5017653;28;45398;-80
2021/10/15 01:45:25;;;;;;;;;43.25;35.50;;;;;13.71;58.04;101673.19;5017905;28;46106;-80
2021/10/15 01:47:52;;;;;;;;;47.75;38.25;;;;;13.72;58.16;101674.97;5017107;28;45383;-80
2021/10/15 01:50:21;;;;;;;;;48.75;38.75;;;;;13.70;58.43;101679.22;5019468;28;45819;-81
2021/10/15 01:52:48;;;;;;;;;45.00;36.25;;;;;13.68;58.63;101667.84;5019623;28;45525;-83
2021/10/15 01:55:13;;;;;;;;;46.50;36.75;;;;;13.65;58.23;101670.34;5017664;28;45408;-83
2021/10/15 01:57:39;;;;;;;;;46.25;38.25;;;;;13.60;58.27;101658.00;5017454;28;45449;-84
2021/10/15 02:00:08;;;;;;;;;48.00;39.75;;;;;13.61;58.40;101653.66;5016828;28;45335;-82
2021/10/15 02:02:34;;;;;;;;;51.00;39.25;;;;;13.61;58.34;101653.66;5017652;28;45540;-81
2021/10/15 02:04:59;;;;;;;;;45.00;37.25;;;;;13.60;58.49;101659.72;5017137;28;45830;-86
2021/10/15 02:07:25;;;;;;;;;49.00;40.25;;;;;13.57;58.27;101652.63;5019566;28;45281;-82
2021/10/15 02:09:51;;;;;;;;;47.00;38.75;;;;;13.60;58.41;101668.41;5020736;28;45336;-85
2021/10/15 02:12:17;;;;;;;;;46.00;39.00;;;;;13.54;58.30;101656.81;5020558;28;45560;-80
2021/10/15 02:14:43;;;;;;;;;50.75;40.25;;;;;13.55;58.55;101661.19;5017284;28;46316;-80
2021/10/15 02:17:09;;;;;;;;;45.75;36.75;;;;;13.54;58.62;101660.31;5016479;28;45440;-81
2021/10/15 02:19:35;;;;;;;;;48.00;38.00;;;;;13.52;58.64;101658.44;5016804;28;45343;-80
2021/10/15 02:22:01;;;;;;;;;46.50;37.00;;;;;13.41;58.24;101632.81;5016297;28;45507;-80
2021/10/15 02:24:27;;;;;;;;;46.75;38.00;;;;;13.44;58.33;101645.97;5016347;28;45263;-81
2021/10/15 02:26:52;;;;;;;;;48.25;40.75;;;;;13.45;58.62;101641.66;5016483;28;45236;-86
2021/10/15 02:29:18;;;;;;;;;46.25;38.00;;;;;13.44;58.41;101642.50;5016100;28;45525;-80
2021/10/15 02:31:44;;;;;;;;;50.50;41.00;;;;;13.42;58.60;101644.13;5016682;28;45493;-86
2021/10/15 02:34:10;;;;;;;;;48.00;40.50;;;;;13.44;58.43;101638.19;5016073;28;46345;-80
2021/10/15 02:36:35;;;;;;;;;45.75;37.50;;;;;13.30;58.59;101608.91;5016315;28;45356;-81
2021/10/15 02:39:01;;;;;;;;;45.75;38.25;;;;;13.33;58.65;101618.53;5016846;28;45324;-84
2021/10/15 02:41:27;;;;;;;;;40.75;36.00;;;;;13.30;58.75;101616.69;5016244;28;45616;-80
2021/10/15 02:43:52;;;;;;;;;48.25;38.50;;;;;13.35;58.97;101634.22;5016055;28;45442;-85
2021/10/15 02:46:18;;;;;;;;;46.00;37.50;;;;;13.18;58.98;101618.72;5016945;28;45464;-80
2021/10/15 02:48:44;;;;;;;;;46.50;36.00;;;;;13.25;59.04;101633.78;5016724;28;45395;-80
2021/10/15 02:51:11;;;;;;;;;40.75;35.50;;;;;13.16;59.25;101617.75;5016434;28;45403;-82
2021/10/15 02:53:38;;;;;;;;;46.75;37.00;;;;;13.24;59.30;101636.31;5017333;28;46197;-80
2021/10/15 02:56:04;;;;;;;;;44.75;36.00;;;;;13.17;59.18;101640.34;5020640;28;45766;-86
2021/10/15 02:58:30;;;;;;;;;43.75;36.50;;;;;13.08;59.25;101635.59;5017284;28;45359;-85
2021/10/15 03:00:55;;;;;;;;;48.50;37.75;;;;;13.07;59.40;101641.59;5017602;28;45243;-80
2021/10/15 03:03:21;;;;;;;;;45.25;36.75;;;;;13.10;59.41;101656.47;5019051;28;46330;-81
2021/10/15 03:05:46;;;;;;;;;50.00;39.25;;;;;13.08;59.45;101658.09;5019462;28;45496;-81
2021/10/15 03:08:12;;;;;;;;;44.75;37.50;;;;;13.03;59.12;101650.09;5020378;28;45302;-80
2021/10/15 03:10:38;;;;;;;;;42.25;35.00;;;;;12.97;59.30;101637.69;5019938;28;45493;-85
2021/10/15 03:13:03;;;;;;;;;43.75;37.00;;;;;12.83;59.42;101624.03;5019610;28;46123;-82
2021/10/15 03:15:29;;;;;;;;;45.00;36.00;;;;;12.97;59.75;101650.69;5018950;28;45454;-80
2021/10/15 03:17:55;;;;;;;;;43.00;35.75;;;;;12.82;59.57;101630.03;5019913;28;45387;-84
2021/10/15 03:20:20;;;;;;;;;46.00;36.00;;;;;12.87;59.56;101639.75;5019784;28;45334;-85
2021/10/15 03:22:46;;;;;;;;;44.00;36.25;;;;;12.79;59.75;101634.19;5019470;28;46059;-79
2021/10/15 03:25:12;;;;;;;;;40.50;33.75;;;;;12.84;59.72;101646.59;5019230;28;45228;-82
2021/10/15 03:27:37;;;;;;;;;43.50;36.25;;;;;12.78;59.90;101629.81;5019276;28;45409;-80
2021/10/15 03:30:04;;;;;;;;;14.00;13.75;;;;;12.80;59.65;101633.34;5021355;28;45303;-79
2021/10/15 03:32:29;;;;;;;;;38.00;34.00;;;;;12.79;59.80;101631.59;5019732;28;48019;-80
2021/10/15 03:34:55;;;;;;;;;38.25;33.50;;;;;12.82;59.63;101642.13;5018881;28;45359;-80
2021/10/15 03:37:23;;;;;;;;;34.25;32.25;;;;;12.78;59.76;101630.69;5018763;28;45227;-79
2021/10/15 03:39:49;;;;;;;;;39.00;33.50;;;;;12.78;60.04;101635.00;5019787;28;45539;-79
2021/10/15 03:42:15;;;;;;;;;37.75;34.25;;;;;12.63;59.97;101604.84;5019692;28;45302;-79
2021/10/15 03:44:41;;;;;;;;;36.75;31.00;;;;;12.74;60.22;101615.75;5019101;28;45474;-80
2021/10/15 03:47:06;;;;;;;;;37.00;31.25;;;;;12.80;60.03;101628.16;5018641;28;45387;-80
2021/10/15 03:49:32;;;;;;;;;37.75;33.75;;;;;12.83;60.06;101624.03;5019306;28;45411;-80
2021/10/15 03:51:57;;;;;;;;;37.50;33.00;;;;;12.84;59.71;101627.50;5018043;28;45858;-80
2021/10/15 03:54:23;;;;;;;;;37.00;31.50;;;;;12.87;60.16;101624.16;5018390;28;45460;-80
2021/10/15 03:56:48;;;;;;;;;35.50;32.50;;;;;12.81;59.84;101622.16;5018790;28;45346;-80
2021/10/15 03:59:14;;;;;;;;;35.25;32.25;;;;;12.81;60.00;101614.34;5018792;28;45353;-79
2021/10/15 04:01:40;;;;;;;;;40.75;33.75;;;;;12.89;59.90;101625.13;5019034;28;45990;-80
2021/10/15 04:04:05;;;;;;;;;40.00;33.75;;;;;12.83;59.69;101623.13;5018639;28;45353;-79
2021/10/15 04:06:31;;;;;;;;;37.00;33.50;;;;;12.85;60.08;101626.69;5018995;28;45210;-80
2021/10/15 04:08:56;;;;;;;;;39.50;32.50;;;;;12.83;60.12;101618.84;5018904;28;45342;-79
2021/10/15 04:11:22;;;;;;;;;39.50;33.50;;;;;12.82;59.84;101614.44;5017494;28;45993;-81
2021/10/15 04:13:48;;;;;;;;;37.50;32.75;;;;;12.78;59.81;101594.31;5017153;28;45384;-82
2021/10/15 04:16:13;;;;;;;;;36.75;31.50;;;;;12.93;59.77;101622.75;5018460;28;45455;-80
2021/10/15 04:18:39;;;;;;;;;39.75;33.25;;;;;12.86;59.66;101602.50;5018927;28;45458;-82
2021/10/15 04:21:05;;;;;;;;;36.25;33.25;;;;;12.83;59.90;101605.84;5018204;28;45450;-79
2021/10/15 04:23:30;;;;;;;;;38.00;33.00;;;;;12.83;59.91;101605.84;5018764;28;45387;-83
2021/10/15 04:25:56;;;;;;;;;40.25;33.50;;;;;12.83;60.38;101610.13;5021360;28;45263;-81
2021/10/15 04:28:22;;;;;;;;;35.50;33.00;;;;;12.72;60.34;101595.72;5023862;28;45520;-78
2021/10/15 04:30:47;;;;;;;;;35.00;31.25;;;;;12.70;60.32;101608.66;5017538;28;45432;-78
2021/10/15 04:33:13;;;;;;;;;37.50;33.25;;;;;12.66;60.43;101604.09;5018031;28;45279;-77
2021/10/15 04:35:39;;;;;;;;;36.75;33.25;;;;;12.64;60.64;101601.44;5018397;28;45282;-77
2021/10/15 04:38:04;;;;;;;;;38.50;33.25;;;;;12.64;60.62;101600.53;5018139;28;45588;-79
2021/10/15 04:40:30;;;;;;;;;31.25;31.00;;;;;12.62;60.68;101602.19;5022936;28;46191;-78
2021/10/15 04:42:56;;;;;;;;;38.25;33.50;;;;;12.59;60.68;101591.63;5019306;28;45232;-83
2021/10/15 04:45:21;;;;;;;;;28.75;27.75;;;;;12.64;60.95;101591.06;5020159;28;45488;-84
2021/10/15 04:47:47;;;;;;;;;33.00;30.75;;;;;12.65;60.72;101589.31;5019093;28;45615;-79
2021/10/15 04:50:12;;;;;;;;;41.25;30.50;;;;;12.60;60.61;101583.91;5019660;28;45504;-80
2021/10/15 04:52:38;;;;;;;;;34.25;31.00;;;;;12.63;60.68;101584.06;5037747;28;45274;-84
2021/10/15 04:55:05;;;;;;;;;33.00;29.75;;;;;12.60;60.58;101568.31;5018291;28;45389;-79
2021/10/15 04:57:30;;;;;;;;;33.50;30.50;;;;;12.65;60.78;101587.63;5018595;28;45472;-79
2021/10/15 04:59:56;;;;;;;;;34.50;27.75;;;;;12.60;60.66;101576.13;5032626;28;46223;-78
2021/10/15 05:02:22;;;;;;;;;35.00;31.00;;;;;12.58;60.93;101577.75;5032779;28;45323;-77
2021/10/15 05:04:47;;;;;;;;;33.00;31.00;;;;;12.61;60.82;101590.91;5017503;28;45287;-77
2021/10/15 05:07:13;;;;;;;;;30.50;29.00;;;;;12.57;60.72;101591.56;5017687;28;45175;-77
2021/10/15 05:09:39;;;;;;;;;29.75;28.50;;;;;12.56;61.03;101587.19;5017860;28;45337;-86
2021/10/15 05:12:07;;;;;;;;;30.00;27.50;;;;;12.56;60.99;101591.47;5021562;28;45406;-80
2021/10/15 05:14:34;;;;;;;;;29.25;26.25;;;;;12.53;61.02;101584.44;5022942;28;45303;-84
2021/10/15 05:17:01;;;;;;;;;34.00;31.75;;;;;12.46;61.37;101580.63;5020214;28;45307;-79
2021/10/15 05:19:28;;;;;;;;;44.00;34.25;;;;;12.51;61.20;101579.19;5018424;28;45388;-81
2021/10/15 05:21:54;;;;;;;;;34.00;31.25;;;;;12.50;61.01;101582.59;5018209;28;45245;-81
2021/10/15 05:24:19;;;;;;;;;29.50;28.75;;;;;12.52;61.34;101590.44;5016956;28;45926;-83
2021/10/15 05:26:45;;;;;;;;;34.50;29.75;;;;;12.51;61.19;101583.47;5018892;28;45541;-84
2021/10/15 05:29:11;;;;;;;;;31.50;29.00;;;;;12.53;61.30;101581.84;5019892;28;46310;-81
2021/10/15 05:31:36;;;;;;;;;36.75;31.75;;;;;12.52;61.20;101574.84;5017035;28;45290;-82
2021/10/15 05:34:03;;;;;;;;;33.50;30.50;;;;;12.44;61.20;101560.63;5018229;28;45295;-81
2021/10/15 05:36:28;;;;;;;;;40.00;31.75;;;;;12.51;61.21;101580.88;5017641;28;45358;-82
2021/10/15 05:38:54;;;;;;;;;40.25;33.75;;;;;12.47;61.21;101585.03;5017461;28;45460;-84
2021/10/15 05:41:22;;;;;;;;;35.25;31.00;;;;;12.40;61.32;101572.56;5016417;28;45310;-87
2021/10/15 05:43:48;;;;;;;;;32.75;27.25;;;;;12.37;61.34;101572.41;5017138;28;45370;-81
2021/10/15 05:46:13;;;;;;;;;36.50;32.75;;;;;12.35;61.33;101572.34;5017008;28;45318;-87
2021/10/15 05:48:39;;;;;;;;;30.50;26.50;;;;;12.39;61.29;101571.66;5022975;28;46385;-80
2021/10/15 05:51:04;;;;;;;;;34.25;31.75;;;;;12.41;61.38;101578.63;5026402;28;45441;-81
2021/10/15 05:53:32;;;;;;;;;31.75;29.25;;;;;12.39;61.50;101584.63;5020494;28;45544;-80
2021/10/15 05:56:18;;;;;;;;;33.50;30.75;;;;;12.36;61.26;101579.28;5022753;28;45486;-78
2021/10/15 05:59:03;;;;;;;;;38.00;31.50;;;;;12.38;61.34;101589.75;5025301;28;45406;-81
2021/10/15 06:01:30;;;;;;;;;32.00;30.25;;;;;12.31;61.16;101580.78;5022825;28;45284;-85
2021/10/15 06:04:38;;;;;;;;;32.25;30.50;;;;;12.32;61.24;101587.75;5021787;28;45314;-85
2021/10/15 06:07:57;;;;;;;;;35.00;31.25;;;;;12.27;61.13;101586.63;5017972;28;45280;-82
2021/10/15 06:14:39;;;;;;;;;44.50;35.50;;;;;12.31;60.95;101585.09;5017860;28;45319;-84
2021/10/15 06:17:11;;;;;;;;;40.75;33.75;;;;;12.21;60.85;101587.19;5016611;28;45565;-81
2021/10/15 06:19:52;;;;;;;;;41.75;37.00;;;;;12.19;61.03;101596.63;5016651;28;46434;-84
2021/10/15 06:22:21;;;;;;;;;37.50;32.00;;;;;12.19;61.10;101608.72;5016864;28;45330;-78
2021/10/15 06:24:49;;;;;;;;;38.25;32.75;;;;;12.11;60.87;101592.72;5017145;28;45279;-80
2021/10/15 06:27:16;;;;;;;;;39.75;34.25;;;;;12.18;61.14;101612.13;5016926;28;45366;-86
2021/10/15 06:29:42;;;;;;;;;34.00;32.50;;;;;12.18;61.23;101604.31;5017341;28;46386;-82
2021/10/15 06:32:08;;;;;;;;;35.50;31.25;;;;;12.11;61.38;101592.72;5019319;28;45305;-81
2021/10/15 06:34:34;;;;;;;;;34.75;32.00;;;;;12.20;61.43;101610.50;5016604;28;45586;-78
2021/10/15 06:37:00;;;;;;;;;33.75;31.00;;;;;12.04;61.79;101573.34;5016083;28;45416;-82
2021/10/15 06:39:25;;;;;;;;;36.25;30.25;;;;;12.20;61.56;101600.09;5019177;28;46536;-76
2021/10/15 06:41:51;;;;;;;;;42.75;33.75;;;;;12.20;61.66;101602.72;5020478;28;45280;-78
2021/10/15 06:44:17;;;;;;;;;35.00;31.75;;;;;12.12;61.58;101597.13;5015851;28;45252;-77
2021/10/15 06:46:43;;;;;;;;;36.50;33.50;;;;;12.10;61.75;101600.47;5016292;28;45235;-75
2021/10/15 06:49:09;;;;;;;;;44.25;35.75;;;;;12.07;61.74;101596.88;5014488;28;45773;-75
2021/10/15 06:51:36;;;;;;;;;41.75;35.25;;;;;12.12;61.69;101598.84;5015357;28;45921;-82
2021/10/15 06:54:01;;;;;;;;;38.25;32.75;;;;;12.12;61.73;101591.94;5016409;28;45347;-78
2021/10/15 06:56:27;;;;;;;;;40.75;35.25;;;;;12.15;61.70;101588.63;5014406;28;45747;-79
2021/10/15 06:58:53;;;;;;;;;35.50;32.25;;;;;12.16;61.54;101590.38;5015164;28;45584;-78
2021/10/15 07:01:18;;;;;;;;;46.00;37.00;;;;;12.19;61.71;101590.53;5014890;28;45413;-79
2021/10/15 07:03:44;;;;;;;;;41.25;35.00;;;;;12.27;61.82;101607.38;5015660;28;45437;-78
2021/10/15 07:06:09;;;;;;;;;41.25;33.50;;;;;12.28;61.58;101601.38;5015801;28;45541;-80
2021/10/15 07:08:35;;;;;;;;;45.50;37.75;;;;;12.22;61.71;101594.19;5015138;28;46253;-80
2021/10/15 07:11:01;;;;;;;;;40.75;34.50;;;;;12.30;61.66;101610.16;5014668;28;45490;-80
2021/10/15 07:13:26;;;;;;;;;38.25;33.50;;;;;12.33;61.73;101615.50;5013574;28;45444;-80
2021/10/15 07:15:52;;;;;;;;;46.75;38.00;;;;;12.35;61.76;101623.38;5015948;28;45312;-79
2021/10/15 07:18:17;;;;;;;;;39.75;32.75;;;;;12.33;61.58;101623.28;5015212;28;46524;-78
2021/10/15 07:20:43;;;;;;;;;33.50;31.50;;;;;12.31;61.53;101616.25;5014388;28;45765;-78
2021/10/15 07:23:11;;;;;;;;;37.25;33.25;;;;;12.40;61.60;101632.28;5020340;28;45363;-77
2021/10/15 07:25:36;;;;;;;;;34.00;30.00;;;;;12.41;61.34;101633.16;5021190;28;45421;-77
2021/10/15 07:28:02;;;;;;;;;38.75;34.75;;;;;12.43;61.45;101618.56;4996827;28;45494;-79
2021/10/15 07:30:28;;;;;;;;;36.75;34.00;;;;;12.49;61.23;101624.03;4996921;28;45354;-77
2021/10/15 07:32:54;;;;;;;;;34.75;33.00;;;;;12.51;61.20;101618.13;5005041;28;45442;-80
2021/10/15 07:35:20;;;;;;;;;38.75;34.50;;;;;12.54;61.24;101620.00;5015794;28;45216;-79
2021/10/15 07:37:45;;;;;;;;;41.75;34.00;;;;;12.62;61.24;101629.03;5015209;28;46162;-77
2021/10/15 07:40:11;;;;;;;;;43.00;33.75;;;;;12.62;61.25;101616.06;5015584;28;45379;-81
2021/10/15 07:42:38;;;;;;;;;34.50;31.75;;;;;12.70;60.92;101624.25;5016972;28;45303;-80
2021/10/15 07:45:04;;;;;;;;;38.25;33.25;;;;;12.69;61.16;101612.94;5017184;28;45296;-80
2021/10/15 07:47:30;;;;;;;;;44.00;35.50;;;;;12.79;60.89;101616.00;5017538;28;45265;-77
2021/10/15 07:49:55;;;;;;;;;39.00;33.50;;;;;12.93;60.79;101629.66;5017941;28;45466;-78
2021/10/15 07:52:22;;;;;;;;;40.50;36.25;;;;;12.99;60.53;101629.94;5018611;28;45261;-74
2021/10/15 07:54:48;;;;;;;;;39.25;32.50;;;;;13.02;60.47;101640.50;5018944;28;45449;-80
2021/10/15 07:57:14;;;;;;;;;35.50;32.50;;;;;13.07;60.36;101640.72;5018507;28;46221;-76
2021/10/15 07:59:40;;;;;;;;;46.75;37.50;;;;;13.10;60.59;101626.16;5019527;28;45271;-78
2021/10/15 08:02:06;;;;;;;;;46.75;35.00;;;;;13.19;60.45;101640.41;5018545;28;45295;-81
2021/10/15 08:04:32;;;;;;;;;43.75;35.25;;;;;13.19;59.87;101641.31;5018217;28;45636;-76
2021/10/15 08:06:57;;;;;;;;;57.25;46.00;;;;;13.18;59.91;101638.63;5026582;28;46099;-79
2021/10/15 08:09:23;;;;;;;;;57.25;47.00;;;;;13.16;59.85;101638.56;5020001;28;45295;-78
2021/10/15 08:11:49;;;;;;;;;54.00;45.00;;;;;13.15;59.83;101640.28;5019042;28;45431;-79
2021/10/15 08:14:14;;;;;;;;;59.25;47.00;;;;;13.14;60.23;101634.97;5019012;28;45522;-77
2021/10/15 08:16:40;;;;;;;;;55.50;46.25;;;;;13.15;60.27;101642.88;5017923;28;45372;-77
2021/10/15 08:19:06;;;;;;;;;55.25;44.75;;;;;13.15;60.21;101641.97;5018066;28;45355;-80
2021/10/15 08:21:31;;;;;;;;;62.00;47.75;;;;;13.15;60.25;101639.38;5018631;28;45284;-77
2021/10/15 08:23:57;;;;;;;;;55.50;44.50;;;;;13.20;60.26;101643.09;5019237;28;45605;-78
2021/10/15 08:26:23;;;;;;;;;54.50;44.75;;;;;13.22;60.00;101636.25;5017874;28;46048;-78
2021/10/15 08:28:48;;;;;;;;;58.50;49.00;;;;;13.22;60.02;101632.75;5017879;28;45544;-77
2021/10/15 08:31:16;;;;;;;;;54.25;45.50;;;;;13.22;60.21;101628.47;5017758;28;45561;-78
2021/10/15 08:33:42;;;;;;;;;55.25;44.75;;;;;13.29;60.25;101627.91;5018149;28;45531;-77
2021/10/15 08:36:08;;;;;;;;;55.25;43.00;;;;;13.31;59.95;101634.09;5017304;28;45173;-77
2021/10/15 08:38:34;;;;;;;;;48.50;39.25;;;;;13.38;60.15;101636.97;5017979;28;45358;-79
2021/10/15 08:40:59;;;;;;;;;46.75;37.50;;;;;13.40;60.02;101627.56;5017976;28;45220;-77
2021/10/15 08:43:40;;;;;;;;;43.00;36.00;;;;;13.44;59.70;101625.16;5018208;28;45713;-80
2021/10/15 08:46:07;;;;;;;;;36.50;32.75;;;;;13.57;59.38;101651.75;5017778;28;46022;-79
2021/10/15 08:48:37;;;;;;;;;45.25;37.00;;;;;13.59;59.84;101639.72;5018841;28;45804;-77
2021/10/15 08:51:03;;;;;;;;;44.25;34.75;;;;;13.65;59.17;101652.13;5026043;28;45433;-75
2021/10/15 08:53:29;;;;;;;;;49.50;37.25;;;;;13.63;59.30;101641.63;5021025;28;45319;-76
2021/10/15 08:55:54;;;;;;;;;47.25;38.00;;;;;13.65;59.28;101650.38;5017564;28;46105;-73
2021/10/15 08:58:20;;;;;;;;;39.00;33.50;;;;;13.66;59.16;101644.38;5017157;28;45422;-75
2021/10/15 09:00:57;;;;;;;;;42.00;35.25;;;;;13.65;59.48;101650.38;5018414;28;45354;-80
2021/10/15 09:03:24;;;;;;;;;45.75;37.25;;;;;13.69;59.17;101647.13;5017810;28;45275;-80
2021/10/15 09:05:53;;;;;;;;;38.75;34.25;;;;;13.69;59.24;101654.94;5017441;28;46619;-75
2021/10/15 09:08:20;;;;;;;;;43.50;37.00;;;;;13.71;58.69;101653.28;5017182;28;45420;-78
2021/10/15 09:10:45;;;;;;;;;43.00;36.25;;;;;13.70;58.89;101643.69;5017257;28;45358;-79
2021/10/15 09:13:18;;;;;;;;;39.50;35.00;;;;;13.73;59.13;101648.16;5017321;28;45317;-78
2021/10/15 09:15:48;;;;;;;;;45.25;37.00;;;;;13.77;58.90;101648.34;5017072;28;45563;-74
2021/10/15 09:18:20;;;;;;;;;50.50;39.75;;;;;13.80;58.61;101657.13;5017092;28;45992;-78
2021/10/15 09:20:48;;;;;;;;;50.25;39.75;;;;;13.77;58.74;101653.56;5017266;28;45338;-77
2021/10/15 09:23:16;;;;;;;;;50.50;38.75;;;;;13.80;58.73;101654.53;5017293;28;45573;-76
2021/10/15 09:25:44;;;;;;;;;46.00;36.50;;;;;13.88;58.99;101669.63;5017426;28;45249;-75
2021/10/15 09:28:19;;;;;;;;;47.00;36.75;;;;;13.91;58.93;101661.97;5017151;28;45309;-78
2021/10/15 09:30:47;;;;;;;;;45.75;37.00;;;;;13.97;59.02;101674.38;5017104;28;45552;-77
2021/10/15 09:33:13;;;;;;;;;41.25;33.75;;;;;14.00;58.54;101669.31;5018663;28;45454;-74
2021/10/15 09:35:39;;;;;;;;;44.50;37.00;;;;;14.02;58.65;101670.28;5021334;28;45441;-76
2021/10/15 09:38:07;;;;;;;;;38.00;33.75;;;;;14.06;58.19;101664.38;5021431;28;45497;-74
2021/10/15 09:40:39;;;;;;;;;42.25;36.00;;;;;14.09;58.19;101669.72;5020413;28;45462;-74
2021/10/15 09:43:08;;;;;;;;;45.25;37.25;;;;;14.16;57.85;101668.28;5019511;28;45418;-77
2021/10/15 09:45:47;;;;;;;;;86.50;54.75;;;;;14.29;57.90;101674.03;5016525;28;45477;-74
2021/10/15 09:48:26;;;;;;;;;49.00;41.00;;;;;14.42;58.15;101663.28;5016563;28;45818;-75
2021/10/15 09:51:15;;;;;;;;;46.50;38.75;;;;;14.54;57.05;101663.81;5017490;28;45441;-77
2021/10/15 09:54:01;;;;;;;;;46.25;38.50;;;;;14.62;56.84;101664.16;5021538;28;45262;-81
2021/10/15 09:56:52;;;;;;;;;45.75;38.75;;;;;14.76;56.87;101663.88;5016409;28;45487;-76
2021/10/15 09:59:18;;;;;;;;;46.00;37.75;;;;;14.83;56.45;101658.06;5016155;28;45539;-76
2021/10/15 10:01:44;;;;;;;;;44.75;36.75;;;;;14.94;56.16;101663.75;5015466;28;45470;-79
2021/10/15 10:04:11;;;;;;;;;49.75;39.50;;;;;15.02;55.97;101670.16;5015439;28;45446;-80
2021/10/15 10:06:38;;;;;;;;;47.50;36.00;;;;;15.06;56.03;101666.84;5015302;28;45485;-78
2021/10/15 10:09:05;;;;;;;;;42.25;35.75;;;;;15.14;55.44;101670.66;5015766;28;45751;-77
2021/10/15 10:11:31;;;;;;;;;43.25;35.75;;;;;15.16;55.16;101676.81;5016013;28;45425;-82
2021/10/15 10:13:57;;;;;;;;;45.50;37.00;;;;;15.15;55.11;101677.63;5020077;28;45290;-81
2021/10/15 10:16:25;;;;;;;;;45.50;38.50;;;;;15.11;55.22;101672.25;5015832;28;46069;-80
2021/10/15 10:18:55;;;;;;;;;40.50;35.25;;;;;15.15;55.65;101676.72;5019469;28;45362;-76
2021/10/15 10:21:27;;;;;;;;;43.50;35.00;;;;;15.12;55.43;101671.38;5019432;28;45456;-77
2021/10/15 10:24:06;;;;;;;;;45.00;34.00;;;;;15.10;55.62;101676.56;5014996;28;45332;-75
2021/10/15 10:26:46;;;;;;;;;36.50;31.50;;;;;15.06;55.49;101666.84;5016725;28;45294;-77
2021/10/15 10:29:12;;;;;;;;;36.00;31.00;;;;;15.07;55.96;101667.72;5015738;28;45935;-77
2021/10/15 10:31:38;;;;;;;;;25.75;24.00;;;;;15.06;56.09;101676.38;5016215;28;45336;-76
2021/10/15 10:34:07;;;;;;;;;38.25;32.75;;;;;15.02;55.87;101668.41;5016388;28;45647;-77
2021/10/15 10:36:35;;;;;;;;;29.75;28.00;;;;;15.08;55.76;101683.41;5015974;28;45340;-75
2021/10/15 10:39:19;;;;;;;;;30.75;28.75;;;;;15.13;56.00;101674.06;5014587;28;45273;-77
2021/10/15 10:42:18;;;;;;;;;36.00;29.00;;;;;15.17;56.52;101677.69;5015667;28;45541;-77
2021/10/15 10:44:49;;;;;;;;;38.75;32.00;;;;;15.27;56.44;101674.63;5013136;28;45442;-77
2021/10/15 10:47:17;;;;;;;;;30.50;28.00;;;;;15.36;56.57;101670.56;5014219;28;47218;-78
2021/10/15 10:50:06;;;;;;;;;34.00;29.75;;;;;15.50;56.56;101677.22;5016526;28;45423;-78
2021/10/15 10:52:40;;;;;;;;;27.75;24.00;;;;;15.62;56.51;101668.97;5016435;28;45356;-78
2021/10/15 10:55:06;;;;;;;;;32.25;29.50;;;;;15.76;56.23;101670.38;5016214;28;45340;-79
2021/10/15 10:57:40;;;;;;;;;27.25;25.00;;;;;15.88;56.16;101674.31;5015861;28;45993;-77
2021/10/15 11:00:24;;;;;;;;;27.50;26.00;;;;;16.03;56.06;101666.16;5015459;28;45881;-78
2021/10/15 11:02:54;;;;;;;;;30.50;26.00;;;;;16.17;56.03;101671.88;5016151;28;45367;-78
2021/10/15 11:05:30;;;;;;;;;19.75;18.25;;;;;16.28;55.48;101672.25;5017294;28;45360;-77
2021/10/15 11:08:23;;;;;;;;;28.75;26.25;;;;;16.35;55.82;101669.91;5016052;28;46138;-80
2021/10/15 11:10:50;;;;;;;;;28.00;26.25;;;;;16.39;55.68;101671.78;5015645;28;45952;-78
2021/10/15 11:13:37;;;;;;;;;27.00;24.75;;;;;16.50;55.34;101666.03;5015261;28;45441;-76
2021/10/15 11:16:20;;;;;;;;;22.75;20.50;;;;;16.59;55.48;101663.72;5014471;28;45315;-76